Date,TemperatureHighF,TemperatureAvgF,TemperatureLowF,DewpointHighF,DewpointAvgF,DewpointLowF,HumidityHigh,HumidityAvg,HumidityLow,PressureMaxIn,PressureMinIn,WindSpeedMaxMPH,WindSpeedAvgMPH,GustSpeedMaxMPH,PrecipitationSumIn
2013-1-1,56.8,47.7,42.2,40.9,38.2,33.6,87,71,49,30.24,30.17,13,1,14,0.00
2013-1-2,59.9,47.7,40.8,39.4,37.2,34.2,85,69,42,30.21,30.10,7,1,7,0.00
2013-1-3,58.0,47.1,40.4,43.0,39.5,37.1,91,76,56,30.24,30.13,8,1,9,0.00
2013-1-4,60.8,49.5,42.6,42.0,39.5,37.8,88,70,46,30.26,30.14,7,2,9,0.00
2013-1-5,51.9,48.2,44.6,48.0,44.5,40.1,95,87,78,30.23,30.03,13,0,15,0.20
2013-1-6,53.4,47.8,44.6,46.9,44.1,42.6,94,87,72,30.16,30.01,9,1,10,0.08
2013-1-7,59.9,50.4,43.9,51.3,46.3,41.8,96,86,67,30.24,30.13,7,0,9,0.01
2013-1-8,63.4,52.2,45.9,50.1,46.1,43.7,92,81,59,30.22,30.09,8,1,9,0.00
2013-1-9,53.5,48.6,44.9,50.2,43.9,37.3,93,84,72,30.12,29.97,16,2,19,0.01
2013-1-10,53.7,46.3,42.5,38.2,35.9,33.2,78,68,47,30.18,30.05,17,2,17,0.00
2013-1-11,54.8,45.7,41.0,42.4,37.1,31.7,84,72,55,30.23,30.09,13,2,16,0.00
2013-1-12,52.8,44.7,39.4,38.4,33.3,24.4,85,66,36,30.23,30.11,7,0,9,0.00
2013-1-13,54.1,43.7,36.2,36.4,28.1,19.2,74,55,33,30.24,30.15,13,1,17,0.00
2013-1-14,55.4,45.4,37.8,35.1,24.2,16.7,74,45,27,30.38,30.19,15,2,19,0.00
2013-1-15,59.6,46.4,39.2,38.0,33.6,29.1,84,63,34,30.45,30.36,10,1,11,0.00
2013-1-16,61.6,48.3,40.1,40.8,36.9,34.7,88,66,41,30.40,30.22,7,2,8,0.00
2013-1-17,68.2,51.9,41.8,43.3,36.7,34.3,81,58,31,30.23,30.12,7,1,8,0.00
2013-1-18,68.2,53.9,44.6,42.3,37.9,33.8,83,57,30,30.20,30.10,7,1,9,0.00
2013-1-19,68.1,54.2,43.8,42.2,37.4,34.1,81,55,33,30.22,30.12,9,0,9,0.00
2013-1-20,67.9,53.9,44.4,40.3,36.4,33.1,78,54,29,30.19,30.09,6,0,7,0.00
2013-1-21,67.8,53.5,44.1,42.1,39.2,35.3,76,60,37,30.14,30.05,8,1,8,0.00
2013-1-22,64.0,53.7,45.4,43.9,41.6,39.3,84,65,46,30.08,29.97,10,1,11,0.00
2013-1-23,55.1,52.3,50.3,50.1,46.3,43.4,93,81,66,30.05,29.92,11,1,11,0.13
2013-1-24,60.8,53.8,50.3,52.8,50.2,48.3,93,88,74,30.16,30.03,6,0,8,0.00
2013-1-25,68.3,57.6,52.2,56.7,52.3,49.8,94,83,64,30.16,30.01,12,1,12,0.00
2013-1-26,56.7,51.9,48.1,49.8,45.7,41.8,94,80,65,30.05,29.97,15,3,21,0.00
2013-1-27,59.7,49.6,44.1,42.8,39.5,36.1,81,69,48,30.15,30.04,14,2,14,0.00
2013-1-28,61.0,50.5,45.5,45.6,41.5,37.3,87,72,53,30.27,30.13,12,2,18,0.00
2013-1-29,61.2,51.4,45.9,46.9,43.3,40.4,85,74,57,30.33,30.24,11,1,13,0.00
2013-1-30,70.2,55.5,47.9,50.5,44.7,40.6,85,68,43,30.31,30.23,6,0,7,0.00
2013-1-31,67.4,55.2,46.7,49.3,45.8,42.8,92,72,50,30.26,30.14,8,2,9,0.00
2013-2-1,69.8,56.1,47.5,50.3,46.4,44.0,91,72,46,30.19,30.08,10,1,10,0.00
2013-2-2,61.1,51.5,47.5,50.8,47.1,44.0,98,86,68,30.27,30.18,10,1,11,0.00
2013-2-3,60.9,51.4,46.8,47.9,44.6,40.9,92,78,59,30.23,30.11,11,1,13,0.00
2013-2-4,61.7,49.7,46.5,51.1,46.0,43.4,94,88,65,30.15,30.04,11,1,14,0.00
2013-2-5,55.7,49.8,46.7,47.9,45.0,41.3,92,84,73,30.13,30.04,15,3,17,0.00
2013-2-6,60.0,50.1,43.6,48.0,43.8,39.6,91,80,52,30.17,30.10,16,2,18,0.00
2013-2-7,56.2,48.5,42.9,47.5,43.5,39.3,94,84,61,30.14,29.97,12,1,17,0.30
2013-2-8,54.9,47.4,41.3,43.5,39.7,29.0,94,76,45,29.99,29.91,17,2,20,0.16
2013-2-9,62.9,51.2,44.2,40.9,32.9,27.0,74,51,28,30.06,29.96,10,1,13,0.00
2013-2-10,63.8,50.7,42.4,45.8,39.3,29.2,88,67,39,30.09,29.99,10,0,10,0.00
2013-2-11,68.3,53.6,46.9,46.5,37.8,30.6,90,59,27,30.20,30.03,11,2,12,0.00
2013-2-12,64.5,51.4,44.6,47.8,44.6,42.6,96,79,46,30.33,30.20,8,1,9,0.00
2013-2-13,65.8,51.0,44.2,51.0,45.5,42.1,94,83,49,30.31,30.18,11,1,12,0.00
2013-2-14,73.3,56.6,45.8,48.6,45.9,43.6,96,71,39,30.22,30.12,8,1,9,0.00
2013-2-15,75.3,61.6,51.8,46.8,43.9,41.4,76,54,33,30.24,30.17,11,1,11,0.00
2013-2-16,71.7,57.6,48.7,51.8,46.8,44.0,91,69,44,30.19,30.02,13,2,15,0.00
2013-2-17,64.3,52.2,45.5,49.4,45.3,42.4,93,79,53,30.02,29.93,14,2,20,0.00
2013-2-18,54.1,48.4,46.3,44.7,41.8,37.5,90,78,64,30.01,29.94,14,3,16,0.00
2013-2-19,48.6,45.1,41.3,44.2,39.3,33.3,92,81,65,29.94,29.72,18,3,18,0.38
2013-2-20,53.9,46.8,39.7,42.3,37.5,31.2,82,71,51,30.03,29.82,23,5,23,0.00
2013-2-21,54.6,48.6,43.5,41.8,37.4,29.5,79,66,39,30.14,30.02,28,6,28,0.00
2013-2-22,58.2,49.2,44.1,45.3,42.8,37.6,93,80,52,30.23,30.14,28,5,29,0.00
2013-2-23,54.2,49.5,45.2,47.5,38.5,26.3,96,68,39,30.23,30.13,27,8,29,0.01
2013-2-24,58.9,50.5,46.2,43.5,30.9,20.9,90,50,25,30.24,30.14,27,9,27,0.00
2013-2-25,57.6,49.7,44.6,46.6,43.4,39.9,94,80,64,30.24,30.14,22,5,23,0.00
2013-2-26,60.4,51.1,44.7,43.2,35.5,20.7,84,59,23,30.20,30.11,20,5,24,0.00
2013-2-27,63.7,51.9,45.6,47.3,43.6,36.3,93,75,45,30.33,30.18,23,4,24,0.00
2013-2-28,61.0,51.3,47.6,51.8,48.5,45.8,98,90,72,30.42,30.33,22,5,22,0.00
2013-3-1,69.3,56.8,47.1,52.8,48.7,44.6,98,77,48,30.40,30.20,14,2,17,0.00
2013-3-2,69.1,57.5,50.2,53.9,49.9,47.7,92,77,54,30.21,30.04,16,1,17,0.00
2013-3-3,58.6,50.9,47.6,50.5,47.2,44.4,93,88,72,30.07,30.00,18,4,21,0.00
2013-3-4,58.7,49.0,45.2,46.8,43.9,41.0,92,83,61,30.13,30.03,16,1,16,0.00
2013-3-5,56.4,49.8,44.0,46.5,42.6,40.0,90,77,64,30.04,29.81,18,2,21,0.07
2013-3-6,56.4,50.8,45.7,48.4,44.4,41.6,93,79,61,30.04,29.82,23,4,24,0.09
2013-3-7,56.0,48.3,44.5,44.9,42.7,37.6,92,81,53,29.97,29.83,9,1,12,0.05
2013-3-8,56.3,50.0,45.6,46.9,43.6,38.6,92,79,69,29.98,29.80,23,3,26,0.00
2013-3-9,65.2,56.9,48.3,47.7,44.6,41.8,86,64,45,30.27,30.20,14,2,14,0.00
2013-3-10,69.5,55.4,47.2,51.5,45.2,39.6,90,71,40,30.32,30.21,9,1,13,0.00
2013-3-11,73.7,54.6,45.3,50.5,45.9,41.4,94,76,37,30.23,30.08,12,1,14,0.00
2013-3-12,72.2,55.2,46.5,55.4,48.7,45.1,96,81,51,30.13,30.04,8,1,11,0.00
2013-3-13,79.6,58.8,45.8,57.1,50.0,43.3,95,75,42,30.13,30.03,11,1,13,0.00
2013-3-14,65.8,53.9,47.7,52.9,47.9,45.1,93,81,60,30.14,30.05,15,1,17,0.00
2013-3-15,68.3,54.1,48.2,53.8,48.4,44.9,94,82,58,30.11,30.01,19,2,19,0.00
2013-3-16,64.1,53.4,47.6,52.6,47.6,44.8,100,82,62,30.09,30.00,16,3,21,0.00
2013-3-17,60.9,51.9,47.0,45.5,43.8,40.1,89,75,48,30.12,30.01,27,6,31,0.00
2013-3-18,62.1,50.5,45.6,47.6,45.1,42.8,94,83,53,30.09,30.01,20,5,23,0.00
2013-3-19,64.2,52.0,47.4,48.8,44.8,38.6,91,78,41,30.11,30.03,17,2,20,0.07
2013-3-20,58.4,52.0,48.0,53.3,49.3,44.3,98,91,71,30.11,30.03,18,4,19,0.11
2013-3-21,56.5,49.7,43.0,47.0,42.6,39.8,97,78,58,30.11,29.99,22,6,24,0.00
2013-3-22,59.3,52.8,47.5,43.5,36.7,18.3,80,57,22,30.10,30.00,24,6,26,0.00
2013-3-23,65.0,53.5,46.9,43.9,37.3,23.8,88,57,22,30.12,30.02,21,5,22,0.00
2013-3-24,58.1,50.2,45.7,47.1,45.0,43.1,94,83,66,30.07,29.93,21,6,23,0.00
2013-3-25,50.3,48.0,47.1,44.5,43.5,42.6,89,84,76,29.98,29.90,22,6,22,0.00
2013-3-26,55.9,50.1,46.3,47.1,45.2,43.0,93,83,69,29.99,29.90,22,6,24,0.00
2013-3-27,59.3,53.0,48.1,53.1,49.6,46.1,97,89,73,29.97,29.92,17,4,19,0.00
2013-3-28,59.5,54.7,51.9,52.8,51.2,50.2,94,88,78,30.06,30.01,15,7,18,0.00
2013-3-29,72.8,55.5,49.0,54.6,50.4,47.9,98,85,46,30.06,29.98,21,5,23,0.00
2013-3-30,65.9,55.3,50.1,54.2,51.2,47.7,98,88,57,30.04,29.94,22,4,26,0.09
2013-3-31,63.7,56.9,53.3,55.3,52.2,50.3,95,85,67,30.03,29.96,21,4,24,0.15
2013-4-1,59.2,54.7,51.0,54.3,51.8,48.5,97,90,75,30.12,30.01,16,3,17,0.41
2013-4-2,56.9,51.3,47.7,52.1,49.2,47.1,98,93,81,30.17,30.06,25,6,28,0.00
2013-4-3,74.0,51.9,47.1,55.0,48.6,40.7,99,91,31,30.12,29.96,27,5,29,0.00
2013-4-4,61.4,54.4,48.3,56.2,52.7,47.7,99,94,81,30.10,29.97,24,5,24,0.42
2013-4-5,59.7,54.4,50.8,55.2,52.4,50.2,99,93,75,30.17,30.09,17,3,18,0.03
2013-4-6,57.9,53.3,51.2,54.8,52.0,49.2,99,96,87,30.18,30.10,21,5,25,0.04
2013-4-7,58.2,53.4,50.9,54.1,50.7,46.5,97,91,79,30.15,29.83,30,6,33,0.07
2013-4-8,58.9,52.0,46.5,47.4,41.0,33.2,89,67,45,29.97,29.77,45,14,47,0.01
2013-4-9,56.5,56.3,56.1,31.5,31.1,30.8,39,38,38,30.04,30.03,24,18,30,0.00
2013-4-10,63.8,63.8,63.8,49.6,49.6,49.6,60,60,60,30.08,30.08,9,9,14,0.00
2013-4-15,48.9,46.4,45.2,39.3,38.5,36.5,79,74,65,29.93,29.85,42,13,47,0.01
2013-4-16,58.5,51.9,43.5,42.5,36.4,29.8,75,57,36,30.13,29.93,22,6,25,0.00
2013-4-17,62.9,57.6,53.8,42.4,33.2,23.9,65,40,24,30.25,30.13,33,12,35,0.00
2013-4-18,68.3,57.9,48.9,46.2,40.4,31.8,87,54,27,30.24,30.15,22,5,27,0.00
2013-4-19,70.9,57.0,47.0,51.2,47.2,43.3,93,71,47,30.21,30.03,22,5,25,0.00
2013-4-20,69.7,56.4,47.9,49.2,45.7,37.5,90,70,34,30.08,29.95,22,6,23,0.00
2013-4-21,77.0,62.6,47.9,50.9,46.0,39.6,91,58,30,30.02,29.89,18,4,20,0.00
2013-4-22,81.5,68.4,58.1,49.1,45.2,34.0,66,46,20,29.94,29.81,21,6,24,0.00
2013-4-23,72.3,59.7,47.7,48.6,38.6,19.3,94,54,15,29.91,29.83,27,9,30,0.00
2013-4-24,54.9,50.1,45.9,49.8,47.4,44.7,97,91,81,29.92,29.80,23,7,26,0.00
2013-4-25,58.1,53.3,50.4,50.7,49.0,46.4,95,86,74,30.11,29.92,22,4,24,0.00
2013-4-26,55.7,51.1,48.0,48.9,47.1,45.8,94,86,77,30.21,30.10,25,5,28,0.00
2013-4-27,56.3,49.5,46.7,50.0,47.3,45.7,98,92,79,30.21,30.06,23,5,26,0.00
2013-4-28,70.6,58.1,47.7,52.6,48.5,45.1,96,73,42,30.06,29.85,18,4,22,0.00
2013-4-29,77.5,62.6,51.2,54.0,49.9,46.8,86,65,37,29.87,29.73,24,6,27,0.00
2013-4-30,70.6,58.5,49.9,50.2,45.0,24.2,88,64,18,29.83,29.76,23,7,23,0.00
2013-5-1,74.5,65.7,54.5,48.6,34.3,17.6,80,36,13,30.05,29.81,34,8,36,0.00
2013-5-2,87.6,70.1,57.0,53.2,36.9,21.1,80,36,10,30.12,30.04,24,4,25,0.00
2013-5-3,83.2,68.4,57.1,47.9,37.1,24.4,61,34,13,30.05,29.76,22,4,23,0.00
2013-5-4,71.5,60.2,52.9,51.9,46.9,31.9,88,64,32,29.76,29.53,26,7,31,0.00
2013-5-5,66.8,59.0,53.5,51.4,48.4,46.2,80,69,51,29.78,29.57,25,5,27,0.00
2013-5-6,67.8,60.0,55.9,53.0,50.6,47.3,87,72,50,29.94,29.78,21,4,21,0.00
2013-5-7,64.1,57.5,51.6,54.7,52.4,50.4,97,84,67,30.02,29.92,20,6,21,0.00
2013-5-8,57.2,52.5,50.4,51.4,49.8,47.9,98,91,78,30.11,30.01,25,6,28,0.00
2013-5-9,56.4,52.3,49.9,50.2,48.5,47.4,93,87,79,30.16,30.07,28,7,31,0.00
2013-5-10,55.7,51.3,49.2,51.9,49.6,47.8,98,94,85,30.17,30.08,28,6,32,0.00
2013-5-11,70.5,53.7,48.6,56.7,50.6,48.0,99,90,59,30.14,30.03,24,5,26,0.00
2013-5-12,61.5,54.9,50.7,55.9,52.4,49.8,98,92,78,30.13,30.00,27,6,28,0.00
2013-5-13,59.0,53.9,50.1,54.9,51.6,49.5,99,92,80,30.08,29.91,28,8,32,0.00
2013-5-14,58.2,53.8,50.1,51.3,49.1,46.3,96,85,75,29.97,29.88,33,11,41,0.00
2013-5-15,57.2,52.4,48.7,51.3,48.7,46.1,96,87,76,30.02,29.94,33,14,39,0.00
2013-5-16,59.6,53.8,51.2,55.6,51.9,49.8,99,94,82,30.01,29.94,29,10,29,0.00
2013-5-17,58.7,53.4,49.9,51.7,49.2,47.5,94,86,70,30.04,29.95,33,11,33,0.00
2013-5-18,63.6,56.1,48.9,52.4,49.5,46.7,95,80,60,30.11,30.02,27,8,32,0.00
2013-5-19,71.8,59.7,51.7,53.4,48.7,42.6,88,69,39,30.10,29.95,25,6,28,0.00
2013-5-20,79.0,61.9,49.6,55.9,48.4,38.6,93,65,25,29.98,29.88,29,7,33,0.00
2013-5-21,58.7,53.0,49.0,50.1,46.5,40.4,94,79,66,29.98,29.87,34,12,37,0.00
2013-5-22,56.7,51.9,47.4,43.6,38.3,28.3,81,61,35,30.00,29.88,33,9,33,0.00
2013-5-23,59.7,52.5,46.8,45.5,43.5,41.6,87,72,54,29.99,29.89,27,8,28,0.00
2013-5-24,60.3,52.2,46.7,47.4,44.9,43.3,90,77,57,29.99,29.91,34,8,34,0.00
2013-5-25,57.1,51.5,47.0,48.9,46.8,44.7,96,85,69,30.03,29.92,34,10,36,0.00
2013-5-26,58.2,53.9,50.3,53.3,51.4,48.9,98,92,80,30.10,30.02,31,9,31,0.00
2013-5-27,56.8,54.0,50.8,54.8,52.6,49.3,97,95,90,30.10,29.97,30,7,30,0.11
2013-5-28,60.5,55.7,52.5,57.5,53.5,50.9,99,93,76,29.98,29.89,28,6,29,0.02
2013-5-29,61.7,55.8,51.4,54.5,51.4,47.6,96,86,69,29.96,29.87,29,9,29,0.00
2013-5-30,64.1,55.8,48.5,50.7,48.0,45.9,94,76,57,29.97,29.90,28,6,28,0.00
2013-5-31,74.8,58.4,49.6,52.1,48.4,45.4,88,71,42,29.99,29.87,22,7,26,0.00
2013-6-1,74.2,59.3,51.0,52.1,49.0,46.6,90,70,45,29.91,29.74,22,7,27,0.00
2013-6-2,60.1,52.7,49.3,51.7,49.4,47.9,96,89,74,29.76,29.66,30,10,32,0.00
2013-6-3,62.7,55.1,50.4,53.7,50.7,48.8,96,86,69,29.84,29.70,28,7,31,0.00
2013-6-4,59.7,54.4,51.6,53.5,51.2,49.9,96,89,78,29.94,29.83,24,7,29,0.00
2013-6-5,58.0,53.2,50.9,51.8,50.1,48.9,96,90,79,29.98,29.90,26,6,26,0.00
2013-6-6,59.8,53.2,49.8,52.4,50.4,48.8,98,91,75,29.94,29.84,24,7,25,0.00
2013-6-7,71.0,58.4,50.5,59.6,53.0,49.9,99,84,61,29.88,29.69,21,4,21,0.00
2013-6-8,68.7,58.2,52.7,56.4,53.3,50.1,93,84,64,29.78,29.66,30,9,33,0.00
2013-6-9,59.4,55.9,54.6,56.0,54.1,53.4,97,94,86,29.86,29.76,28,8,29,0.00
2013-6-10,64.4,57.1,53.4,54.4,52.7,51.4,97,86,69,29.93,29.77,26,7,28,0.00
2013-6-11,63.2,56.3,52.1,54.5,51.8,49.3,95,86,71,29.98,29.87,23,5,24,0.00
2013-6-12,62.7,56.0,50.5,51.9,49.7,48.1,94,80,65,29.97,29.88,34,9,35,0.00
2013-6-13,67.2,57.4,49.4,51.5,49.0,46.5,92,75,55,30.07,29.96,21,6,23,0.00
2013-6-14,75.7,59.4,50.4,53.3,49.8,46.1,94,73,39,29.97,29.79,25,7,26,0.00
2013-6-15,54.1,50.9,48.6,51.0,49.1,47.7,97,94,87,29.98,29.81,30,10,32,0.00
2013-6-16,59.7,53.8,49.7,53.3,50.4,48.5,96,89,79,30.06,29.96,36,10,36,0.00
2013-6-17,62.6,55.2,49.8,56.3,52.7,49.1,98,92,79,30.07,30.00,28,12,32,0.00
2013-6-18,59.2,54.9,52.4,53.9,52.1,50.8,98,91,80,30.02,29.96,38,12,39,0.00
2013-6-19,62.9,56.4,51.4,51.9,49.6,47.1,95,79,63,30.04,29.97,26,9,31,0.00
2013-6-20,63.7,56.8,50.8,51.3,49.1,46.9,91,76,61,29.99,29.92,33,9,33,0.00
2013-6-21,69.8,56.1,49.5,53.6,50.5,48.2,96,83,54,29.96,29.89,27,8,31,0.00
2013-6-22,70.0,57.8,50.4,54.3,51.1,47.8,98,80,50,29.92,29.80,33,9,33,0.00
2013-6-23,60.1,56.4,52.2,59.7,55.9,51.6,99,99,98,29.86,29.80,26,8,33,0.06
2013-6-24,60.4,56.8,52.9,57.9,55.7,52.6,99,96,90,29.88,29.80,14,4,16,0.04
2013-6-25,69.8,63.2,60.2,65.1,60.9,57.0,98,93,83,29.96,29.85,16,4,16,0.13
2013-6-26,62.0,60.6,58.7,59.7,58.9,57.8,97,94,92,30.02,29.98,13,4,13,0.02
2013-6-27,72.1,64.4,57.1,63.4,58.9,55.9,99,83,66,30.05,29.98,23,5,24,0.00
2013-6-28,79.3,65.0,56.8,61.8,57.4,54.8,96,78,51,30.00,29.86,27,6,27,0.00
2013-6-29,82.5,66.2,57.4,59.6,55.9,53.6,90,71,45,29.89,29.76,24,6,26,0.00
2013-6-30,66.0,60.0,55.4,57.8,55.5,53.6,95,85,74,29.82,29.74,24,6,25,0.00
2013-7-1,82.7,60.6,53.7,60.4,55.2,52.8,98,84,47,29.83,29.77,28,6,29,0.00
2013-7-2,68.2,58.4,55.4,59.7,56.0,54.0,99,92,73,29.90,29.79,35,8,35,0.00
2013-7-3,72.6,61.2,55.2,62.0,57.3,54.8,99,88,64,29.89,29.73,29,7,29,0.00
2013-7-4,67.8,62.0,55.3,59.6,55.9,50.6,96,81,69,29.76,29.64,29,9,31,0.00
2013-7-5,58.7,54.9,52.3,53.7,51.8,50.8,95,90,81,29.77,29.67,33,10,34,0.00
2013-7-6,60.4,55.0,52.2,54.3,52.0,50.7,96,90,79,29.79,29.71,28,10,33,0.00
2013-7-7,62.4,56.6,53.3,55.1,53.1,51.3,96,89,76,29.84,29.76,23,7,25,0.00
2013-7-8,63.1,57.0,52.8,56.0,53.5,51.8,98,89,75,29.95,29.83,20,6,22,0.00
2013-7-9,67.2,56.7,51.0,62.3,53.8,50.7,99,91,71,30.00,29.90,25,5,25,0.00
2013-7-10,60.7,54.4,51.7,55.9,52.9,50.9,99,95,83,29.96,29.88,26,6,28,0.01
2013-7-11,56.9,53.0,50.0,53.5,51.5,49.7,99,95,87,29.93,29.86,21,4,23,0.00
2013-7-12,58.2,54.4,51.4,53.9,52.0,50.4,97,92,84,29.93,29.84,23,5,23,0.00
2013-7-13,62.1,55.3,51.6,55.6,52.5,50.7,98,91,77,29.94,29.87,22,6,22,0.00
2013-7-14,58.4,53.6,51.3,54.2,52.0,50.7,99,94,85,29.99,29.87,23,6,25,0.00
2013-7-15,58.7,53.6,49.8,54.7,52.0,49.5,99,95,85,29.91,29.83,19,3,21,0.00
2013-7-16,62.9,56.5,52.3,56.8,54.1,50.9,97,92,78,30.01,29.84,11,2,14,0.02
2013-7-17,61.9,56.8,53.1,56.4,54.3,52.1,98,92,81,30.08,30.00,18,3,19,0.00
2013-7-18,58.7,54.4,52.1,55.4,52.9,51.5,99,95,87,30.04,29.91,25,5,25,0.00
2013-7-19,58.9,54.0,51.8,55.4,52.6,51.1,99,95,87,29.94,29.81,24,6,24,0.00
2013-7-20,57.6,52.9,50.6,54.3,51.6,50.3,99,96,86,29.85,29.73,22,6,25,0.00
2013-7-21,57.6,53.5,51.0,54.7,52.3,50.7,100,96,88,29.85,29.75,18,4,19,0.00
2013-7-22,61.6,56.3,53.0,58.0,55.2,52.6,100,96,86,29.94,29.85,15,3,19,0.00
2013-7-23,65.7,58.2,54.3,60.0,55.9,54.0,100,93,78,29.99,29.91,14,3,16,0.00
2013-7-24,64.8,57.4,52.6,57.7,55.0,52.1,99,92,77,29.98,29.87,20,5,22,0.00
2013-7-25,60.0,54.4,51.5,56.0,53.2,51.2,100,96,85,30.00,29.91,20,4,20,0.00
2013-7-26,60.7,55.2,52.3,57.2,54.1,52.0,100,97,87,30.08,29.99,17,3,21,0.00
2013-7-27,59.4,54.9,52.8,56.1,54.0,52.5,100,97,88,30.02,29.85,17,4,19,0.00
2013-7-28,57.7,54.4,53.0,54.7,53.3,51.8,100,96,88,29.87,29.80,17,3,17,0.01
2013-7-29,61.8,56.3,53.1,55.5,53.7,52.2,97,91,79,29.99,29.82,18,4,20,0.00
2013-7-30,60.6,55.6,52.0,55.5,53.3,51.3,98,92,82,30.08,29.98,18,4,19,0.00
2013-7-31,60.2,55.2,51.5,55.2,53.1,50.9,99,93,83,30.07,29.96,23,6,23,0.00
2013-8-1,61.4,56.5,53.3,55.7,53.5,52.0,97,90,81,30.05,29.93,22,8,23,0.00
2013-8-2,60.2,54.5,51.0,54.9,52.5,50.4,99,94,81,29.97,29.87,22,6,23,0.00
2013-8-3,60.1,54.3,50.7,55.1,52.7,50.2,99,95,82,29.96,29.88,21,4,21,0.00
2013-8-4,58.1,53.9,51.4,53.9,52.5,51.1,100,96,84,29.99,29.92,22,4,22,0.00
2013-8-5,57.9,54.3,52.0,54.4,52.7,51.0,98,95,86,30.01,29.93,15,3,20,0.01
2013-8-6,59.5,55.8,52.1,56.0,53.8,51.5,98,94,84,30.02,29.95,16,3,18,0.02
2013-8-7,64.5,58.3,54.5,57.9,55.9,53.9,98,92,78,30.09,30.01,13,2,13,0.03
2013-8-8,63.7,57.7,53.4,58.5,55.5,52.5,99,93,77,30.02,29.90,19,3,21,0.08
2013-8-9,62.7,56.6,52.8,57.8,54.9,51.9,99,94,83,29.98,29.89,16,4,18,0.04
2013-8-10,62.9,57.7,55.1,57.6,55.8,54.0,99,94,82,30.03,29.96,20,4,20,0.00
2013-8-11,59.5,55.3,53.5,56.5,54.5,53.2,100,97,88,30.01,29.91,21,4,23,0.01
2013-8-12,63.3,56.2,53.1,58.2,54.9,52.8,100,96,82,29.98,29.91,20,4,20,0.00
2013-8-13,72.5,60.1,54.6,59.3,55.5,52.8,98,86,62,29.96,29.87,19,4,21,0.00
2013-8-14,65.6,58.2,53.1,60.2,56.1,52.4,98,93,79,29.96,29.87,21,6,23,0.00
2013-8-15,68.7,62.0,57.4,64.0,60.5,57.1,100,95,85,29.95,29.88,17,5,21,0.00
2013-8-16,63.6,58.8,56.2,60.7,57.9,55.8,100,97,88,29.97,29.90,19,5,21,0.01
2013-8-17,66.0,58.9,55.6,60.5,57.0,54.7,99,94,81,29.97,29.82,20,6,21,0.00
2013-8-18,74.4,64.0,55.1,62.6,58.1,54.7,100,83,63,29.86,29.73,18,4,19,0.00
2013-8-19,69.0,61.0,57.0,59.6,57.3,54.3,98,88,72,29.87,29.75,21,6,27,0.00
2013-8-20,66.3,59.2,55.8,59.9,56.9,55.1,100,92,78,29.87,29.79,18,4,20,0.00
2013-8-21,64.5,59.0,55.7,56.9,55.4,54.2,96,88,75,29.92,29.84,15,3,22,0.00
2013-8-22,65.0,59.6,56.6,56.8,55.1,54.0,93,86,73,29.95,29.85,23,5,23,0.00
2013-8-23,58.7,56.7,54.6,55.4,54.6,53.1,96,93,88,29.91,29.76,21,5,23,0.00
2013-8-24,64.1,58.8,54.7,59.7,56.6,54.2,99,93,82,29.87,29.79,20,6,23,0.00
2013-8-25,68.8,62.2,58.4,64.4,60.3,58.0,99,94,82,29.92,29.86,12,2,14,0.01
2013-8-26,65.2,60.1,56.9,59.5,57.3,55.6,97,91,76,29.99,29.87,17,4,19,0.02
2013-8-27,64.1,58.1,53.6,60.3,56.7,53.3,100,96,86,29.88,29.80,20,6,21,0.01
2013-8-28,68.5,60.7,56.0,63.5,59.6,55.9,100,97,83,29.91,29.82,18,5,20,0.02
2013-8-29,69.0,62.3,58.5,63.2,60.6,58.4,100,95,81,30.04,29.91,21,4,21,0.02
2013-8-30,71.7,62.8,57.1,64.7,59.8,56.6,100,91,74,30.01,29.87,19,5,21,0.01
2013-8-31,63.7,58.1,54.9,59.9,57.1,54.6,100,97,87,29.95,29.86,21,7,21,0.01
2013-9-1,66.1,60.2,54.9,61.7,58.3,54.6,100,94,80,29.93,29.84,18,6,21,0.00
2013-9-2,70.3,64.0,59.8,63.7,61.6,59.1,100,93,79,29.94,29.85,18,4,20,0.00
2013-9-3,67.8,61.8,57.8,61.9,59.3,57.4,99,92,76,29.98,29.89,20,6,21,0.00
2013-9-4,68.8,62.1,58.1,62.1,59.5,57.5,98,92,79,30.01,29.90,25,6,25,0.00
2013-9-5,68.0,61.6,57.3,60.4,58.1,55.4,99,89,75,29.99,29.91,22,6,24,0.00
2013-9-6,81.8,69.3,56.3,61.2,54.5,48.1,96,63,39,29.96,29.78,17,3,19,0.00
2013-9-7,70.7,67.6,64.7,58.0,51.5,49.1,76,57,48,29.81,29.78,3,1,3,0.00
2013-9-16,57.3,57.2,57.0,56.4,56.3,56.1,97,97,97,29.81,29.80,17,6,19,0.00
2013-9-17,63.6,59.5,55.9,57.3,55.4,52.1,98,87,73,29.86,29.78,26,7,26,0.00
2013-9-18,74.3,63.5,54.1,57.7,52.2,47.2,90,69,41,29.89,29.79,17,5,19,0.00
2013-9-19,86.7,65.0,55.1,61.3,53.3,48.9,88,69,34,29.83,29.70,16,2,17,0.00
2013-9-20,73.6,61.6,54.1,63.6,57.8,51.2,95,88,70,29.83,29.74,13,2,14,0.00
2013-9-21,65.5,61.3,57.7,60.4,58.1,55.0,96,90,79,29.87,29.77,16,2,16,0.51
2013-9-22,70.7,61.2,53.8,58.0,54.9,51.6,95,81,60,29.97,29.86,14,2,18,0.00
2013-9-23,80.4,65.3,57.8,62.5,57.2,52.3,91,76,49,29.99,29.90,15,1,15,0.00
2013-9-24,69.3,61.4,57.3,58.7,54.8,49.8,88,79,68,29.97,29.88,21,4,24,0.00
2013-9-25,67.0,59.6,54.7,52.0,49.7,46.1,83,70,56,29.91,29.79,16,3,22,0.00
2013-9-26,71.1,62.5,54.6,49.3,44.5,39.7,72,53,36,29.95,29.80,14,2,15,0.00
2013-9-27,79.5,65.0,56.0,51.1,43.4,36.1,76,47,28,30.07,29.95,12,1,14,0.00
2013-9-28,80.7,63.6,55.3,58.0,51.4,40.7,90,68,26,30.05,29.96,14,2,16,0.00
2013-9-29,74.3,63.9,56.3,63.1,58.8,53.7,94,84,65,30.08,30.01,13,1,16,0.00
2013-9-30,68.4,63.2,57.9,63.5,59.2,43.4,96,88,55,30.04,29.94,13,2,14,0.00
2013-10-1,71.5,61.5,53.6,54.6,51.4,44.7,92,71,51,29.99,29.89,11,2,15,0.00
2013-10-2,71.7,60.9,54.8,55.8,50.2,43.9,86,69,50,29.98,29.90,14,1,16,0.00
2013-10-3,73.0,62.8,53.0,47.4,41.8,34.6,69,48,30,30.05,29.92,19,2,21,0.00
2013-10-4,82.8,71.3,61.6,40.7,35.7,31.8,39,28,17,30.05,29.94,21,4,21,0.00
2013-10-5,88.4,72.7,61.7,46.3,37.5,27.9,56,31,13,30.15,30.05,8,1,8,0.00
2013-10-6,88.1,70.7,58.1,48.1,38.8,31.5,60,34,16,30.08,29.95,8,1,9,0.00
2013-10-7,82.3,65.8,54.6,50.7,43.6,31.6,83,48,24,29.95,29.83,14,2,15,0.00
2013-10-8,70.5,57.7,52.4,54.0,49.6,47.3,88,76,44,29.88,29.68,16,2,21,0.00
2013-10-9,67.7,58.2,50.9,51.6,47.0,43.0,89,68,44,29.73,29.59,12,1,15,0.00
2013-10-10,67.3,56.4,51.4,54.2,49.4,45.9,90,78,61,29.98,29.72,17,3,21,0.00
2013-10-11,62.2,53.6,49.7,52.5,49.0,47.3,93,85,68,30.06,29.95,16,2,18,0.00
2013-10-12,60.3,53.4,48.6,52.2,48.9,46.6,94,86,72,29.99,29.87,19,3,21,0.00
2013-10-13,75.3,59.3,50.8,54.3,48.2,42.1,92,70,38,30.03,29.89,14,1,15,0.00
2013-10-14,80.4,64.3,53.2,53.4,46.4,39.8,86,56,29,30.08,29.96,9,1,11,0.00
2013-10-15,83.3,67.0,55.2,52.6,42.4,34.0,80,45,20,30.01,29.92,10,1,12,0.00
2013-10-16,86.7,68.6,57.6,51.8,42.5,34.6,80,43,19,30.05,29.95,8,0,9,0.00
2013-10-17,84.7,67.0,55.9,51.5,42.7,34.7,75,45,18,30.04,29.92,12,1,14,0.00
2013-10-18,74.2,59.0,49.5,55.2,48.9,45.4,88,72,40,30.02,29.95,6,0,7,0.00
2013-10-19,79.5,60.2,49.2,55.1,49.0,44.8,90,70,37,30.04,29.96,8,1,9,0.00
2013-10-20,70.5,55.4,46.8,55.5,48.5,44.0,93,79,51,29.99,29.88,8,1,11,0.00
2013-10-21,65.9,53.5,48.8,53.2,49.0,46.5,95,86,62,29.99,29.89,8,1,10,0.00
2013-10-22,68.7,53.5,47.8,56.9,49.5,45.8,96,87,60,29.99,29.89,8,1,9,0.00
2013-10-23,66.0,52.8,48.5,54.7,49.1,46.9,95,88,63,29.95,29.88,13,1,15,0.00
2013-10-24,60.7,52.6,49.5,51.1,48.8,47.5,93,87,70,30.08,29.95,11,1,11,0.00
2013-10-25,69.4,57.2,49.9,54.9,50.3,46.8,92,79,58,30.14,30.04,9,1,13,0.00
2013-10-26,76.8,58.9,50.2,56.3,50.5,47.4,93,76,39,30.11,29.98,9,1,9,0.00
2013-10-27,55.9,52.4,49.3,51.2,49.0,46.9,95,89,79,30.00,29.65,25,4,25,0.00
2013-10-28,59.7,53.8,49.6,50.7,48.8,45.6,90,84,68,29.82,29.64,19,3,26,0.00
2013-10-29,62.8,55.2,50.9,50.9,48.9,46.3,92,80,60,30.02,29.81,11,1,11,0.00
2013-10-30,69.2,55.8,49.7,53.8,48.4,43.2,95,78,54,30.12,30.02,13,0,13,0.00
2013-10-31,74.7,59.4,51.0,53.7,47.3,42.5,90,66,39,30.15,30.03,9,0,12,0.00
2013-11-1,75.5,62.6,51.9,51.0,48.2,43.9,92,62,37,30.11,29.97,10,1,12,0.00
2013-11-2,63.9,56.5,49.9,53.8,49.1,45.1,92,77,54,29.99,29.86,15,2,16,0.00
2013-11-3,64.9,55.2,49.1,47.8,41.9,35.8,83,62,37,30.03,29.89,10,1,12,0.00
2013-11-4,68.7,58.1,47.7,43.0,38.7,35.2,71,50,31,30.04,29.89,11,1,13,0.00
2013-11-5,75.2,62.3,54.2,47.2,38.6,33.5,57,43,27,30.18,30.02,11,1,11,0.00
2013-11-6,72.7,62.1,53.3,47.3,42.9,37.0,72,51,35,30.22,30.11,9,1,9,0.00
2013-11-7,74.0,61.1,53.5,52.1,45.9,40.3,91,60,36,30.13,30.03,12,1,15,0.00
2013-11-8,74.0,57.2,49.9,56.4,50.1,45.8,96,79,48,30.05,29.93,11,1,14,0.00
2013-11-9,74.3,56.6,49.3,53.4,49.6,46.4,94,80,44,30.01,29.94,14,1,15,0.00
2013-11-10,66.8,55.0,51.0,54.0,50.1,48.1,92,84,61,30.09,29.99,12,2,14,0.00
2013-11-11,66.4,57.5,51.6,55.2,50.6,46.7,91,79,59,30.14,30.04,7,0,11,0.00
2013-11-12,70.8,61.4,55.9,54.0,51.0,47.6,86,69,48,30.24,30.11,9,1,11,0.00
2013-11-13,75.9,58.3,52.1,59.1,52.8,50.4,94,83,50,30.21,30.07,14,1,15,0.00
2013-11-14,59.3,53.6,51.5,54.3,50.1,45.2,96,88,70,30.08,29.85,13,2,17,0.00
2013-11-15,65.0,54.1,49.4,49.8,46.7,44.2,90,77,49,29.85,29.69,13,2,18,0.00
2013-11-16,63.8,53.5,47.0,51.1,47.5,42.4,94,81,53,29.89,29.73,15,2,18,0.00
2013-11-17,61.2,53.1,49.0,50.5,47.8,44.7,94,83,64,30.06,29.88,10,1,12,0.00
2013-11-18,60.1,52.5,47.9,50.3,47.8,45.4,93,85,66,30.13,30.05,11,1,11,0.00
2013-11-19,58.2,54.7,52.5,55.0,50.6,47.6,93,86,82,30.07,29.93,9,0,9,0.05
2013-12-10,46.8,45.9,44.5,31.9,31.1,30.1,59,56,55,30.20,30.18,6,1,6,0.00
2013-12-11,60.7,48.7,40.8,37.4,33.7,30.5,83,58,33,30.21,30.14,10,2,10,0.00
2013-12-12,62.0,49.7,42.2,45.6,38.5,32.1,91,67,43,30.23,30.13,9,1,11,0.00
2013-12-13,60.8,50.3,44.3,46.4,42.2,36.0,92,75,45,30.30,30.19,5,0,6,0.00
2013-12-14,65.7,51.8,43.1,43.7,40.2,36.9,92,67,37,30.36,30.27,9,2,11,0.00
2013-12-15,63.6,52.3,44.2,44.0,40.4,38.3,86,65,45,30.33,30.20,9,2,11,0.00
2013-12-16,71.9,56.9,48.6,42.1,39.2,38.0,73,53,30,30.21,30.08,7,1,7,0.00
2013-12-17,67.2,56.2,49.7,46.8,41.7,38.6,72,59,46,30.14,29.99,11,2,12,0.00
2013-12-18,57.1,51.6,48.7,48.1,44.3,38.9,89,77,61,30.00,29.72,19,2,20,0.00
2013-12-19,61.1,51.7,46.4,44.9,37.8,22.4,85,61,32,29.91,29.69,13,2,18,0.00
2013-12-20,64.6,52.2,45.6,44.8,31.3,16.5,83,47,25,29.98,29.89,7,0,9,0.00
2013-12-21,65.2,52.9,44.9,51.8,46.6,41.4,90,80,62,30.05,29.93,8,0,8,0.00
2013-12-22,68.5,55.4,46.3,47.9,43.5,39.8,95,68,38,30.25,30.05,5,0,7,0.00
2013-12-23,63.4,51.0,46.8,44.6,42.0,40.3,81,72,47,30.35,30.24,8,1,8,0.00
2013-12-24,67.9,55.5,47.9,47.8,43.0,40.3,87,64,44,30.31,30.17,5,0,6,0.00
2013-12-25,70.0,56.9,49.7,46.1,42.3,39.1,76,59,40,30.25,30.15,9,2,11,0.00
2013-12-26,70.3,54.8,46.5,46.3,41.1,37.6,85,62,36,30.22,30.13,7,1,7,0.00
2013-12-27,62.3,53.5,46.8,44.9,40.8,38.5,82,63,48,30.19,30.08,11,1,11,0.00
2013-12-28,67.1,54.1,44.7,42.4,38.2,34.0,78,57,31,30.12,29.99,6,1,8,0.00
2013-12-29,71.5,57.9,50.7,38.1,32.0,24.3,60,40,19,30.13,30.05,9,2,11,0.00
2013-12-30,65.6,53.1,46.8,46.8,41.5,37.0,88,66,39,30.22,30.13,8,1,8,0.00
2013-12-31,64.1,51.2,45.0,47.3,42.4,37.3,91,74,44,30.24,30.12,8,0,9,0.00
2014-1-1,62.7,52.9,44.4,45.4,41.2,31.3,93,67,35,30.18,30.09,7,1,7,0.00
2014-1-2,62.3,53.1,48.2,40.3,37.9,35.7,68,57,38,30.14,30.04,11,4,13,0.00